sensor_id;sensor_type;location;lat;lon;timestamp;pressure;altitude;pressure_sealevel;temperature;humidity
59825;BME280;45703;50.898;6.054;2023-04-09T00:02:11;101076.59;;;8.61;92.75
59825;BME280;45703;50.898;6.054;2023-04-09T00:04:36;101078.00;;;8.57;92.98
59825;BME280;45703;50.898;6.054;2023-04-09T00:07:02;101085.72;;;8.53;92.56
59825;BME280;45703;50.898;6.054;2023-04-09T00:09:27;101089.50;;;8.44;92.96
59825;BME280;45703;50.898;6.054;2023-04-09T00:11:52;101085.91;;;8.37;93.07
59825;BME280;45703;50.898;6.054;2023-04-09T00:14:18;101084.19;;;8.29;93.34
59825;BME280;45703;50.898;6.054;2023-04-09T00:16:43;101084.09;;;8.23;93.34
59825;BME280;45703;50.898;6.054;2023-04-09T00:19:09;101074.56;;;8.14;93.56
59825;BME280;45703;50.898;6.054;2023-04-09T00:21:35;101082.25;;;8.09;93.82
59825;BME280;45703;50.898;6.054;2023-04-09T00:24:04;101083.44;;;8.06;93.99
59825;BME280;45703;50.898;6.054;2023-04-09T00:26:30;101083.66;;;8.05;94.11
59825;BME280;45703;50.898;6.054;2023-04-09T00:28:55;101065.31;;;7.95;93.76
59825;BME280;45703;50.898;6.054;2023-04-09T00:31:21;101068.16;;;7.94;94.05
59825;BME280;45703;50.898;6.054;2023-04-09T00:33:46;101075.56;;;7.98;94.06
59825;BME280;45703;50.898;6.054;2023-04-09T00:36:11;101076.78;;;7.96;94.66
59825;BME280;45703;50.898;6.054;2023-04-09T00:38:37;101070.63;;;7.95;94.68
59825;BME280;45703;50.898;6.054;2023-04-09T00:41:02;101064.88;;;7.92;94.74
59825;BME280;45703;50.898;6.054;2023-04-09T00:43:28;101071.84;;;7.93;94.84
59825;BME280;45703;50.898;6.054;2023-04-09T00:45:53;101073.66;;;7.92;95.58
59825;BME280;45703;50.898;6.054;2023-04-09T00:48:20;101063.56;;;7.88;95.24
59825;BME280;45703;50.898;6.054;2023-04-09T00:50:45;101061.47;;;7.83;95.37
59825;BME280;45703;50.898;6.054;2023-04-09T00:53:11;101072.53;;;7.87;95.25
59825;BME280;45703;50.898;6.054;2023-04-09T00:55:38;101069.25;;;7.85;94.37
59825;BME280;45703;50.898;6.054;2023-04-09T00:58:06;101067.78;;;7.82;94.92
59825;BME280;45703;50.898;6.054;2023-04-09T01:00:32;101062.19;;;7.77;95.00
59825;BME280;45703;50.898;6.054;2023-04-09T01:02:58;101071.63;;;7.80;95.19
59825;BME280;45703;50.898;6.054;2023-04-09T01:11:23;101063.75;;;7.72;94.68
59825;BME280;45703;50.898;6.054;2023-04-09T01:14:00;101062.72;;;7.73;94.97
59825;BME280;45703;50.898;6.054;2023-04-09T01:16:30;101046.88;;;7.65;95.94
59825;BME280;45703;50.898;6.054;2023-04-09T01:22:01;101050.53;;;7.64;96.38
59825;BME280;45703;50.898;6.054;2023-04-09T01:24:59;101046.41;;;7.61;95.64
59825;BME280;45703;50.898;6.054;2023-04-09T01:27:36;101046.13;;;7.56;95.97
59825;BME280;45703;50.898;6.054;2023-04-09T01:30:04;101044.22;;;7.50;96.14
59825;BME280;45703;50.898;6.054;2023-04-09T01:32:30;101047.06;;;7.49;96.08
59825;BME280;45703;50.898;6.054;2023-04-09T01:35:00;101051.53;;;7.48;96.23
59825;BME280;45703;50.898;6.054;2023-04-09T01:37:27;101046.78;;;7.44;96.30
59825;BME280;45703;50.898;6.054;2023-04-09T01:39:53;101045.84;;;7.37;96.51
59825;BME280;45703;50.898;6.054;2023-04-09T01:42:18;101045.84;;;7.37;96.27
59825;BME280;45703;50.898;6.054;2023-04-09T01:44:44;101037.78;;;7.30;96.16
59825;BME280;45703;50.898;6.054;2023-04-09T01:47:11;101039.16;;;7.26;96.30
59825;BME280;45703;50.898;6.054;2023-04-09T01:49:38;101042.97;;;7.24;96.65
59825;BME280;45703;50.898;6.054;2023-04-09T01:52:05;101039.69;;;7.22;96.60
59825;BME280;45703;50.898;6.054;2023-04-09T01:54:30;101033.44;;;7.15;96.63
59825;BME280;45703;50.898;6.054;2023-04-09T01:56:57;101032.16;;;7.11;96.79
59825;BME280;45703;50.898;6.054;2023-04-09T01:59:22;101030.22;;;7.05;96.95
59825;BME280;45703;50.898;6.054;2023-04-09T02:01:54;101026.28;;;7.01;96.96
59825;BME280;45703;50.898;6.054;2023-04-09T02:04:26;101032.94;;;6.97;96.66
59825;BME280;45703;50.898;6.054;2023-04-09T02:07:36;101029.00;;;6.93;96.25
59825;BME280;45703;50.898;6.054;2023-04-09T02:10:04;101023.56;;;6.87;96.36
59825;BME280;45703;50.898;6.054;2023-04-09T02:12:32;101027.75;;;6.81;96.90
59825;BME280;45703;50.898;6.054;2023-04-09T02:15:01;101026.44;;;6.77;96.64
59825;BME280;45703;50.898;6.054;2023-04-09T02:17:27;101027.00;;;6.73;96.73
59825;BME280;45703;50.898;6.054;2023-04-09T02:19:52;101027.88;;;6.65;96.79
59825;BME280;45703;50.898;6.054;2023-04-09T02:22:18;101006.72;;;6.57;96.69
59825;BME280;45703;50.898;6.054;2023-04-09T02:24:45;101017.97;;;6.59;96.65
59825;BME280;45703;50.898;6.054;2023-04-09T02:27:10;101013.19;;;6.55;96.47
59825;BME280;45703;50.898;6.054;2023-04-09T02:29:38;101018.84;;;6.52;96.47
59825;BME280;45703;50.898;6.054;2023-04-09T02:32:03;101019.19;;;6.49;96.03
59825;BME280;45703;50.898;6.054;2023-04-09T02:34:29;101007.28;;;6.45;96.45
59825;BME280;45703;50.898;6.054;2023-04-09T02:36:54;100997.25;;;6.32;96.73
59825;BME280;45703;50.898;6.054;2023-04-09T02:39:20;101002.09;;;6.29;97.22
59825;BME280;45703;50.898;6.054;2023-04-09T02:41:45;101011.22;;;6.26;97.41
59825;BME280;45703;50.898;6.054;2023-04-09T02:44:11;101012.22;;;6.25;97.66
59825;BME280;45703;50.898;6.054;2023-04-09T02:46:38;101008.91;;;6.23;97.89
59825;BME280;45703;50.898;6.054;2023-04-09T02:49:03;101018.22;;;6.19;97.74
59825;BME280;45703;50.898;6.054;2023-04-09T02:51:28;101007.97;;;6.16;97.52
59825;BME280;45703;50.898;6.054;2023-04-09T02:53:54;101002.88;;;6.07;97.31
59825;BME280;45703;50.898;6.054;2023-04-09T02:56:19;101007.38;;;6.06;97.68
59825;BME280;45703;50.898;6.054;2023-04-09T02:58:45;101009.00;;;6.07;97.72
59825;BME280;45703;50.898;6.054;2023-04-09T03:01:13;101006.06;;;6.02;97.72
59825;BME280;45703;50.898;6.054;2023-04-09T03:03:39;100990.84;;;5.96;97.85
59825;BME280;45703;50.898;6.054;2023-04-09T03:06:06;101002.28;;;5.97;98.32
59825;BME280;45703;50.898;6.054;2023-04-09T03:08:31;101006.56;;;5.98;98.59
59825;BME280;45703;50.898;6.054;2023-04-09T03:10:57;100990.56;;;5.91;98.79
59825;BME280;45703;50.898;6.054;2023-04-09T03:13:22;101003.47;;;5.94;98.84
59825;BME280;45703;50.898;6.054;2023-04-09T03:15:52;100997.31;;;5.94;98.85
59825;BME280;45703;50.898;6.054;2023-04-09T03:18:17;100999.16;;;5.93;98.78
59825;BME280;45703;50.898;6.054;2023-04-09T03:20:43;100995.66;;;5.93;98.06
59825;BME280;45703;50.898;6.054;2023-04-09T03:23:09;101001.47;;;5.96;97.94
59825;BME280;45703;50.898;6.054;2023-04-09T03:25:34;100997.81;;;5.97;98.29
59825;BME280;45703;50.898;6.054;2023-04-09T03:28:00;100998.47;;;5.99;98.16
59825;BME280;45703;50.898;6.054;2023-04-09T03:30:25;100999.91;;;6.02;98.15
59825;BME280;45703;50.898;6.054;2023-04-09T03:32:51;100984.84;;;6.02;97.80
59825;BME280;45703;50.898;6.054;2023-04-09T03:35:16;100983.22;;;6.01;97.78
59825;BME280;45703;50.898;6.054;2023-04-09T03:37:41;100977.06;;;6.01;97.83
59825;BME280;45703;50.898;6.054;2023-04-09T03:40:07;100977.56;;;6.04;97.63
59825;BME280;45703;50.898;6.054;2023-04-09T03:42:33;100975.06;;;6.03;97.45
59825;BME280;45703;50.898;6.054;2023-04-09T03:44:59;100984.16;;;6.08;97.07
59825;BME280;45703;50.898;6.054;2023-04-09T03:47:24;100979.66;;;6.09;97.20
59825;BME280;45703;50.898;6.054;2023-04-09T03:49:50;100979.66;;;6.09;97.53
59825;BME280;45703;50.898;6.054;2023-04-09T03:52:15;100980.50;;;6.09;97.99
59825;BME280;45703;50.898;6.054;2023-04-09T03:54:41;100971.56;;;6.10;98.24
59825;BME280;45703;50.898;6.054;2023-04-09T03:57:07;100980.16;;;6.12;98.26
59825;BME280;45703;50.898;6.054;2023-04-09T03:59:33;100987.09;;;6.13;98.37
59825;BME280;45703;50.898;6.054;2023-04-09T04:01:58;100975.69;;;6.13;98.43
59825;BME280;45703;50.898;6.054;2023-04-09T04:04:23;100974.84;;;6.12;98.19
59825;BME280;45703;50.898;6.054;2023-04-09T04:06:49;100979.00;;;6.15;97.78
59825;BME280;45703;50.898;6.054;2023-04-09T04:09:15;100983.94;;;6.18;97.95
59825;BME280;45703;50.898;6.054;2023-04-09T04:11:40;100970.41;;;6.13;97.88
59825;BME280;45703;50.898;6.054;2023-04-09T04:14:05;100987.75;;;6.15;98.00
59825;BME280;45703;50.898;6.054;2023-04-09T04:16:31;100984.94;;;6.17;97.91
59825;BME280;45703;50.898;6.054;2023-04-09T04:18:56;100974.22;;;6.10;98.33
59825;BME280;45703;50.898;6.054;2023-04-09T04:21:22;100985.47;;;6.12;98.37
59825;BME280;45703;50.898;6.054;2023-04-09T04:23:47;100989.41;;;6.16;98.31
59825;BME280;45703;50.898;6.054;2023-04-09T04:26:13;100973.22;;;6.11;98.25
59825;BME280;45703;50.898;6.054;2023-04-09T04:28:38;100974.50;;;6.15;97.97
59825;BME280;45703;50.898;6.054;2023-04-09T04:31:08;100989.59;;;6.15;98.30
59825;BME280;45703;50.898;6.054;2023-04-09T04:33:38;100979.66;;;6.09;98.40
59825;BME280;45703;50.898;6.054;2023-04-09T04:36:10;100992.56;;;6.12;98.38
59825;BME280;45703;50.898;6.054;2023-04-09T04:38:36;100980.03;;;6.06;98.65
59825;BME280;45703;50.898;6.054;2023-04-09T04:41:02;100980.84;;;6.06;98.71
59825;BME280;45703;50.898;6.054;2023-04-09T04:43:29;100982.84;;;6.04;98.69
59825;BME280;45703;50.898;6.054;2023-04-09T04:45:54;100985.84;;;6.01;98.90
59825;BME280;45703;50.898;6.054;2023-04-09T04:48:20;100981.06;;;5.97;98.95
59825;BME280;45703;50.898;6.054;2023-04-09T04:50:45;100992.31;;;5.99;98.55
59825;BME280;45703;50.898;6.054;2023-04-09T04:53:11;100992.50;;;5.97;98.08
59825;BME280;45703;50.898;6.054;2023-04-09T04:55:37;100991.56;;;5.90;98.35
59825;BME280;45703;50.898;6.054;2023-04-09T04:58:04;100984.91;;;5.86;98.83
59825;BME280;45703;50.898;6.054;2023-04-09T05:00:30;100993.56;;;5.88;98.99
59825;BME280;45703;50.898;6.054;2023-04-09T05:02:56;100998.16;;;5.86;98.01
59825;BME280;45703;50.898;6.054;2023-04-09T05:05:21;101006.81;;;5.88;98.26
59825;BME280;45703;50.898;6.054;2023-04-09T05:07:47;100984.63;;;5.81;98.04
59825;BME280;45703;50.898;6.054;2023-04-09T05:10:12;100980.81;;;5.76;98.43
59825;BME280;45703;50.898;6.054;2023-04-09T05:12:37;100991.56;;;5.82;98.50
59825;BME280;45703;50.898;6.054;2023-04-09T05:15:03;100989.09;;;5.81;99.01
59825;BME280;45703;50.898;6.054;2023-04-09T05:17:29;100996.50;;;5.85;99.20
59825;BME280;45703;50.898;6.054;2023-04-09T05:19:54;100983.63;;;5.82;98.85
59825;BME280;45703;50.898;6.054;2023-04-09T05:22:21;100988.56;;;5.85;99.52
59825;BME280;45703;50.898;6.054;2023-04-09T05:24:47;100977.50;;;5.82;99.30
59825;BME280;45703;50.898;6.054;2023-04-09T05:27:12;100986.59;;;5.87;99.11
59825;BME280;45703;50.898;6.054;2023-04-09T05:29:41;100974.22;;;5.80;98.98
59825;BME280;45703;50.898;6.054;2023-04-09T05:32:09;100978.31;;;5.82;99.12
59825;BME280;45703;50.898;6.054;2023-04-09T05:34:35;100979.63;;;5.86;99.03
59825;BME280;45703;50.898;6.054;2023-04-09T05:37:01;100983.28;;;5.85;98.82
59825;BME280;45703;50.898;6.054;2023-04-09T05:39:26;100971.38;;;5.81;98.85
59825;BME280;45703;50.898;6.054;2023-04-09T05:41:51;100976.66;;;5.81;98.81
59825;BME280;45703;50.898;6.054;2023-04-09T05:44:17;100981.13;;;5.89;99.03
59825;BME280;45703;50.898;6.054;2023-04-09T05:46:43;100975.31;;;5.85;99.00
59825;BME280;45703;50.898;6.054;2023-04-09T05:49:08;100985.25;;;5.91;98.92
59825;BME280;45703;50.898;6.054;2023-04-09T05:51:34;100975.66;;;5.90;99.22
59825;BME280;45703;50.898;6.054;2023-04-09T05:53:59;100973.66;;;5.92;99.73
59825;BME280;45703;50.898;6.054;2023-04-09T05:56:25;100975.13;;;5.95;100.00
59825;BME280;45703;50.898;6.054;2023-04-09T05:58:52;100976.91;;;6.02;100.00
59825;BME280;45703;50.898;6.054;2023-04-09T06:01:17;100983.16;;;6.09;99.80
59825;BME280;45703;50.898;6.054;2023-04-09T06:03:43;100979.50;;;6.10;99.66
59825;BME280;45703;50.898;6.054;2023-04-09T06:06:08;100981.28;;;6.18;99.85
59825;BME280;45703;50.898;6.054;2023-04-09T06:08:34;100989.00;;;6.27;100.00
59825;BME280;45703;50.898;6.054;2023-04-09T06:10:59;100994.25;;;6.35;100.00
59825;BME280;45703;50.898;6.054;2023-04-09T06:13:25;100983.47;;;6.37;100.00
59825;BME280;45703;50.898;6.054;2023-04-09T06:15:50;100990.38;;;6.46;100.00
59825;BME280;45703;50.898;6.054;2023-04-09T06:18:16;100989.50;;;6.53;100.00
59825;BME280;45703;50.898;6.054;2023-04-09T06:20:42;100991.75;;;6.64;100.00
59825;BME280;45703;50.898;6.054;2023-04-09T06:23:07;100991.03;;;6.70;100.00
59825;BME280;45703;50.898;6.054;2023-04-09T06:25:34;101003.84;;;6.81;99.87
59825;BME280;45703;50.898;6.054;2023-04-09T06:28:00;100992.53;;;6.87;100.00
59825;BME280;45703;50.898;6.054;2023-04-09T06:30:25;101001.09;;;6.97;100.00
59825;BME280;45703;50.898;6.054;2023-04-09T06:32:51;101003.47;;;7.07;99.86
59825;BME280;45703;50.898;6.054;2023-04-09T06:35:16;101006.53;;;7.18;99.17
59825;BME280;45703;50.898;6.054;2023-04-09T06:37:42;101007.09;;;7.28;99.39
59825;BME280;45703;50.898;6.054;2023-04-09T06:40:07;101006.19;;;7.35;99.05
59825;BME280;45703;50.898;6.054;2023-04-09T06:42:33;101011.25;;;7.45;98.55
59825;BME280;45703;50.898;6.054;2023-04-09T06:44:59;101018.91;;;7.54;98.32
59825;BME280;45703;50.898;6.054;2023-04-09T06:47:24;101017.00;;;7.63;98.43
59825;BME280;45703;50.898;6.054;2023-04-09T06:49:50;101017.91;;;7.70;97.61
59825;BME280;45703;50.898;6.054;2023-04-09T06:52:15;101011.50;;;7.79;98.39
59825;BME280;45703;50.898;6.054;2023-04-09T06:54:41;101011.41;;;7.87;97.95
59825;BME280;45703;50.898;6.054;2023-04-09T06:57:07;101013.41;;;7.99;97.79
59825;BME280;45703;50.898;6.054;2023-04-09T06:59:33;101013.50;;;8.06;97.08
59825;BME280;45703;50.898;6.054;2023-04-09T07:01:59;101015.66;;;8.17;96.18
59825;BME280;45703;50.898;6.054;2023-04-09T07:04:25;101010.84;;;8.20;95.75
59825;BME280;45703;50.898;6.054;2023-04-09T07:06:51;101014.19;;;8.29;96.47
59825;BME280;45703;50.898;6.054;2023-04-09T07:09:19;101009.78;;;8.36;96.28
59825;BME280;45703;50.898;6.054;2023-04-09T07:11:44;101002.44;;;8.38;96.26
59825;BME280;45703;50.898;6.054;2023-04-09T07:14:10;101007.03;;;8.44;95.08
59825;BME280;45703;50.898;6.054;2023-04-09T07:16:35;101014.50;;;8.55;94.72
59825;BME280;45703;50.898;6.054;2023-04-09T07:19:01;101020.25;;;8.58;94.94
59825;BME280;45703;50.898;6.054;2023-04-09T07:21:27;101016.78;;;8.57;93.49
59825;BME280;45703;50.898;6.054;2023-04-09T07:23:52;101017.66;;;8.64;93.38
59825;BME280;45703;50.898;6.054;2023-04-09T07:26:18;101016.03;;;8.63;93.88
59825;BME280;45703;50.898;6.054;2023-04-09T07:28:43;101028.38;;;8.71;94.70
59825;BME280;45703;50.898;6.054;2023-04-09T07:31:09;101031.69;;;8.73;94.69
59825;BME280;45703;50.898;6.054;2023-04-09T07:33:35;101030.72;;;8.80;93.53
59825;BME280;45703;50.898;6.054;2023-04-09T07:36:01;101038.78;;;8.87;93.93
59825;BME280;45703;50.898;6.054;2023-04-09T07:38:28;101032.22;;;8.89;95.08
59825;BME280;45703;50.898;6.054;2023-04-09T07:40:57;101043.78;;;8.96;94.41
59825;BME280;45703;50.898;6.054;2023-04-09T07:43:22;101039.13;;;9.05;93.98
59825;BME280;45703;50.898;6.054;2023-04-09T07:45:48;101037.34;;;9.12;92.97
59825;BME280;45703;50.898;6.054;2023-04-09T07:48:16;101032.47;;;9.15;92.78
59825;BME280;45703;50.898;6.054;2023-04-09T07:50:41;101035.63;;;9.25;91.91
59825;BME280;45703;50.898;6.054;2023-04-09T07:53:06;101038.13;;;9.33;92.25
59825;BME280;45703;50.898;6.054;2023-04-09T07:55:32;101025.88;;;9.39;93.02
59825;BME280;45703;50.898;6.054;2023-04-09T07:57:57;101032.13;;;9.52;92.23
59825;BME280;45703;50.898;6.054;2023-04-09T08:00:23;101033.63;;;9.61;91.57
59825;BME280;45703;50.898;6.054;2023-04-09T08:02:48;101032.06;;;9.73;91.66
59825;BME280;45703;50.898;6.054;2023-04-09T08:05:13;101027.63;;;9.87;90.81
59825;BME280;45703;50.898;6.054;2023-04-09T08:07:39;101041.69;;;10.02;90.33
59825;BME280;45703;50.898;6.054;2023-04-09T08:10:05;101035.59;;;10.14;90.11
59825;BME280;45703;50.898;6.054;2023-04-09T08:12:31;101037.72;;;10.31;90.05
59825;BME280;45703;50.898;6.054;2023-04-09T08:14:56;101028.72;;;10.45;89.02
59825;BME280;45703;50.898;6.054;2023-04-09T08:17:21;101028.56;;;10.60;89.08
59825;BME280;45703;50.898;6.054;2023-04-09T08:19:47;101033.91;;;10.73;88.98
59825;BME280;45703;50.898;6.054;2023-04-09T08:22:14;101040.13;;;10.86;87.70
59825;BME280;45703;50.898;6.054;2023-04-09T08:24:41;101036.00;;;10.97;87.22
59825;BME280;45703;50.898;6.054;2023-04-09T08:27:07;101036.44;;;11.07;87.19
59825;BME280;45703;50.898;6.054;2023-04-09T08:29:33;101042.19;;;11.17;86.76
59825;BME280;45703;50.898;6.054;2023-04-09T08:31:59;101028.41;;;11.20;86.68
59825;BME280;45703;50.898;6.054;2023-04-09T08:34:24;101021.44;;;11.25;86.44
59825;BME280;45703;50.898;6.054;2023-04-09T08:36:50;101028.22;;;11.34;86.36
59825;BME280;45703;50.898;6.054;2023-04-09T08:39:16;101027.38;;;11.40;85.57
59825;BME280;45703;50.898;6.054;2023-04-09T08:41:45;101033.34;;;11.48;85.46
59825;BME280;45703;50.898;6.054;2023-04-09T08:44:11;101027.81;;;11.56;84.88
59825;BME280;45703;50.898;6.054;2023-04-09T08:46:37;101023.44;;;11.68;84.16
59825;BME280;45703;50.898;6.054;2023-04-09T08:49:02;101015.63;;;11.73;83.21
59825;BME280;45703;50.898;6.054;2023-04-09T08:51:28;101011.69;;;11.82;83.09
59825;BME280;45703;50.898;6.054;2023-04-09T08:54:00;101020.25;;;11.97;83.19
59825;BME280;45703;50.898;6.054;2023-04-09T08:56:27;101016.78;;;11.97;80.77
59825;BME280;45703;50.898;6.054;2023-04-09T08:58:54;101023.53;;;12.06;83.02
59825;BME280;45703;50.898;6.054;2023-04-09T09:01:25;101012.03;;;12.05;81.32
59825;BME280;45703;50.898;6.054;2023-04-09T09:04:02;101011.81;;;12.07;80.46
59825;BME280;45703;50.898;6.054;2023-04-09T09:06:36;101000.03;;;12.14;79.12
59825;BME280;45703;50.898;6.054;2023-04-09T09:09:03;101004.91;;;12.30;79.62
59825;BME280;45703;50.898;6.054;2023-04-09T09:11:29;100987.53;;;12.39;80.80
59825;BME280;45703;50.898;6.054;2023-04-09T09:14:03;100997.38;;;12.52;80.41
59825;BME280;45703;50.898;6.054;2023-04-09T09:16:29;100997.34;;;12.58;78.40
59825;BME280;45703;50.898;6.054;2023-04-09T09:18:57;100992.59;;;12.60;77.31
59825;BME280;45703;50.898;6.054;2023-04-09T09:21:23;100990.69;;;12.67;78.30
59825;BME280;45703;50.898;6.054;2023-04-09T09:23:50;100996.53;;;12.82;78.02
59825;BME280;45703;50.898;6.054;2023-04-09T09:26:20;100995.44;;;12.96;76.76
59825;BME280;45703;50.898;6.054;2023-04-09T09:28:47;100999.66;;;13.10;77.30
59825;BME280;45703;50.898;6.054;2023-04-09T09:31:14;100996.44;;;13.26;77.72
59825;BME280;45703;50.898;6.054;2023-04-09T09:33:40;100991.53;;;13.41;73.60
59825;BME280;45703;50.898;6.054;2023-04-09T09:36:06;101002.91;;;13.61;74.33
59825;BME280;45703;50.898;6.054;2023-04-09T09:38:52;100995.91;;;13.78;79.14
59825;BME280;45703;50.898;6.054;2023-04-09T09:41:18;100993.97;;;13.85;74.79
59825;BME280;45703;50.898;6.054;2023-04-09T09:43:44;100997.97;;;13.94;73.85
59825;BME280;45703;50.898;6.054;2023-04-09T09:46:10;100988.22;;;13.99;73.61
59825;BME280;45703;50.898;6.054;2023-04-09T09:48:36;100993.66;;;14.11;74.37
59825;BME280;45703;50.898;6.054;2023-04-09T09:51:08;100990.38;;;14.27;75.02
59825;BME280;45703;50.898;6.054;2023-04-09T09:53:36;100991.47;;;14.37;72.69
59825;BME280;45703;50.898;6.054;2023-04-09T09:56:04;100992.56;;;14.47;72.68
59825;BME280;45703;50.898;6.054;2023-04-09T09:58:38;100987.19;;;14.47;71.98
59825;BME280;45703;50.898;6.054;2023-04-09T10:01:11;100982.25;;;14.44;71.13
59825;BME280;45703;50.898;6.054;2023-04-09T10:03:38;100978.25;;;14.36;68.90
59825;BME280;45703;50.898;6.054;2023-04-09T10:06:07;100983.03;;;14.34;68.97
59825;BME280;45703;50.898;6.054;2023-04-09T10:08:33;100972.88;;;14.36;70.40
59825;BME280;45703;50.898;6.054;2023-04-09T10:11:00;100976.88;;;14.44;70.25
59825;BME280;45703;50.898;6.054;2023-04-09T10:13:34;100979.25;;;14.52;73.21
59825;BME280;45703;50.898;6.054;2023-04-09T10:16:01;100970.25;;;14.47;70.06
59825;BME280;45703;50.898;6.054;2023-04-09T10:18:29;100973.16;;;14.45;70.37
59825;BME280;45703;50.898;6.054;2023-04-09T10:21:00;100973.28;;;14.39;69.03
59825;BME280;45703;50.898;6.054;2023-04-09T10:23:42;100967.06;;;14.39;70.91
59825;BME280;45703;50.898;6.054;2023-04-09T10:26:09;100977.34;;;14.42;72.31
59825;BME280;45703;50.898;6.054;2023-04-09T10:28:38;100970.78;;;14.38;68.51
59825;BME280;45703;50.898;6.054;2023-04-09T10:31:05;100965.56;;;14.43;71.65
59825;BME280;45703;50.898;6.054;2023-04-09T10:33:30;100976.81;;;14.51;69.31
59825;BME280;45703;50.898;6.054;2023-04-09T10:36:12;100963.63;;;14.61;70.43
59825;BME280;45703;50.898;6.054;2023-04-09T10:38:44;100968.94;;;14.79;72.50
59825;BME280;45703;50.898;6.054;2023-04-09T10:41:20;100970.00;;;14.89;69.83
59825;BME280;45703;50.898;6.054;2023-04-09T10:43:46;100969.66;;;14.86;65.30
59825;BME280;45703;50.898;6.054;2023-04-09T10:46:42;100971.56;;;14.97;72.13
59825;BME280;45703;50.898;6.054;2023-04-09T10:49:24;100946.75;;;14.95;68.53
59825;BME280;45703;50.898;6.054;2023-04-09T10:59:34;100946.59;;;15.31;66.63
59825;BME280;45703;50.898;6.054;2023-04-09T11:02:00;100940.59;;;15.40;66.90
59825;BME280;45703;50.898;6.054;2023-04-09T11:04:49;100941.88;;;15.49;71.90
59825;BME280;45703;50.898;6.054;2023-04-09T11:07:22;100937.31;;;15.61;69.02
59825;BME280;45703;50.898;6.054;2023-04-09T11:09:48;100939.41;;;15.59;65.34
59825;BME280;45703;50.898;6.054;2023-04-09T11:12:13;100942.69;;;15.50;60.40
59825;BME280;45703;50.898;6.054;2023-04-09T11:14:39;100943.06;;;15.42;63.69
59825;BME280;45703;50.898;6.054;2023-04-09T11:17:05;100940.00;;;15.38;65.67
59825;BME280;45703;50.898;6.054;2023-04-09T11:19:32;100928.78;;;15.30;60.20
59825;BME280;45703;50.898;6.054;2023-04-09T11:21:58;100920.84;;;15.35;63.47
59825;BME280;45703;50.898;6.054;2023-04-09T11:24:24;100926.09;;;15.41;66.39
59825;BME280;45703;50.898;6.054;2023-04-09T11:26:49;100918.13;;;15.46;67.31
59825;BME280;45703;50.898;6.054;2023-04-09T11:29:15;100911.69;;;15.47;66.33
59825;BME280;45703;50.898;6.054;2023-04-09T11:31:43;100912.06;;;15.28;57.43
59825;BME280;45703;50.898;6.054;2023-04-09T11:34:09;100912.63;;;15.18;64.00
59825;BME280;45703;50.898;6.054;2023-04-09T11:36:36;100905.03;;;15.04;60.78
59825;BME280;45703;50.898;6.054;2023-04-09T11:39:02;100911.94;;;15.00;67.55
59825;BME280;45703;50.898;6.054;2023-04-09T11:41:35;100897.28;;;14.84;64.87
59825;BME280;45703;50.898;6.054;2023-04-09T11:44:02;100908.88;;;14.85;67.83
59825;BME280;45703;50.898;6.054;2023-04-09T11:46:30;100903.72;;;14.83;64.71
59825;BME280;45703;50.898;6.054;2023-04-09T11:48:56;100898.81;;;14.80;64.60
59825;BME280;45703;50.898;6.054;2023-04-09T11:51:22;100897.06;;;14.74;62.14
59825;BME280;45703;50.898;6.054;2023-04-09T11:53:48;100903.50;;;14.73;64.32
59825;BME280;45703;50.898;6.054;2023-04-09T11:56:15;100896.59;;;14.77;65.19
59825;BME280;45703;50.898;6.054;2023-04-09T11:58:44;100898.13;;;14.85;65.98
59825;BME280;45703;50.898;6.054;2023-04-09T12:01:11;100907.13;;;14.90;65.28
59825;BME280;45703;50.898;6.054;2023-04-09T12:03:37;100901.50;;;15.03;68.11
59825;BME280;45703;50.898;6.054;2023-04-09T12:06:04;100896.59;;;15.12;63.18
59825;BME280;45703;50.898;6.054;2023-04-09T12:08:30;100896.72;;;15.17;64.19
59825;BME280;45703;50.898;6.054;2023-04-09T12:13:34;100892.50;;;15.21;67.04
59825;BME280;45703;50.898;6.054;2023-04-09T12:16:00;100888.41;;;15.18;61.08
59825;BME280;45703;50.898;6.054;2023-04-09T12:18:27;100888.06;;;15.26;65.12
59825;BME280;45703;50.898;6.054;2023-04-09T12:20:55;100896.28;;;15.31;65.96
59825;BME280;45703;50.898;6.054;2023-04-09T12:23:21;100888.41;;;15.41;64.99
59825;BME280;45703;50.898;6.054;2023-04-09T12:25:46;100904.88;;;15.56;62.91
59825;BME280;45703;50.898;6.054;2023-04-09T12:28:13;100894.25;;;15.61;63.30
59825;BME280;45703;50.898;6.054;2023-04-09T12:30:42;100900.31;;;15.68;65.49
59825;BME280;45703;50.898;6.054;2023-04-09T12:33:08;100897.13;;;15.71;62.65
59825;BME280;45703;50.898;6.054;2023-04-09T12:35:34;100902.41;;;15.66;60.05
59825;BME280;45703;50.898;6.054;2023-04-09T12:38:02;100891.28;;;15.63;64.44
59825;BME280;45703;50.898;6.054;2023-04-09T12:40:29;100887.34;;;15.54;61.16
59825;BME280;45703;50.898;6.054;2023-04-09T12:42:54;100886.75;;;15.52;61.95
59825;BME280;45703;50.898;6.054;2023-04-09T12:45:20;100895.78;;;15.46;61.48
59825;BME280;45703;50.898;6.054;2023-04-09T12:47:46;100891.47;;;15.45;61.30
59825;BME280;45703;50.898;6.054;2023-04-09T12:50:13;100889.56;;;15.45;61.92
59825;BME280;45703;50.898;6.054;2023-04-09T12:52:40;100876.78;;;15.52;64.18
59825;BME280;45703;50.898;6.054;2023-04-09T12:55:06;100876.31;;;15.67;64.19
59825;BME280;45703;50.898;6.054;2023-04-09T12:57:32;100872.63;;;15.84;57.04
59825;BME280;45703;50.898;6.054;2023-04-09T12:59:58;100877.53;;;16.15;62.94
59825;BME280;45703;50.898;6.054;2023-04-09T13:02:23;100880.13;;;16.38;62.16
59825;BME280;45703;50.898;6.054;2023-04-09T13:04:49;100868.03;;;16.57;63.58
59825;BME280;45703;50.898;6.054;2023-04-09T13:07:15;100868.53;;;16.70;61.61
59825;BME280;45703;50.898;6.054;2023-04-09T13:09:43;100874.91;;;16.81;57.90
59825;BME280;45703;50.898;6.054;2023-04-09T13:12:08;100872.44;;;16.96;59.89
59825;BME280;45703;50.898;6.054;2023-04-09T13:14:34;100866.06;;;17.02;59.47